Fox Valley, Canada
Current Conditions -  °F | °C
As of 9:00 PM on Saturday 25 Oct 2014 (Local Time) from CYXH Reporting Station
Clear Clear  
Wind Chill: 42°   Ceiling: Unl
Heat Index: 46°   Visibility: 15mi
Dew Point: 37°   Wind: 8mph
Humidity: 71%   Direction: 310°NW
Pressure: 29.55"   Gusts: NA
Location:  50.47°N, 109.48°W
Report Text: CYXH 260300Z 31007KT 15SM SKC 08/03 A2955 RMK LAST STFD OBS/NEXT 261300Z SLP022 DENSITY ALT 2400FT
Loading
Personal Weather Stations






























Interactive Weather Map
Tropical Storm Tracking
New forecast layout! Learn more

10-Day Weather Forecast

Advertisements
Track Severe Weather on mobile